Flight Track Log - Related Links

Times and Time Zones

All times are in EDT time to prevent confusion due to time zone crossing. See the N450S flight status page for this flight to view local times or setup timezone preferences in your user account.

Time Position Orientation Groundspeed Altitude Reporting Facility
EDT Latitude Longitude Course Direction KTS MPH feet Rate Location/Type
Fri 08:38:27 AM 41.3378 -82.1956 287° West 129 148 1,300  Level Cleveland Center
Fri 08:39:10 AM 41.3453 -82.2275 287° West 155 178 2,600 1,299 Climbing Cleveland Center
Fri 08:40:04 AM 41.3928 -82.2353 353° North 211 243 3,400 800 Climbing Cleveland Center
Fri 08:40:10 AM 41.3917 -82.2342 143° Southeast 179 206 3,400 1,397 Level Cleveland Center
Fri 08:41:17 AM 41.4583 -82.2297 North 199 229 5,100 1,574 Climbing Cleveland Center
Fri 08:42:12 AM 41.5067 -82.2072 19° North 205 236 6,600 1,474 Climbing Cleveland Center
Fri 08:42:14 AM 41.5033 -82.2075 184° South 209 241 6,500 1,313 Descending Cleveland Center
Fri 08:43:16 AM 41.5542 -82.1706 29° Northeast 206 237 8,000 1,677 Climbing Cleveland Center
Fri 08:45:20 AM 41.6692 -82.0944 26° Northeast 209 241 11,700 1,742 Climbing Cleveland Center
Fri 08:46:22 AM 41.7175 -82.0603 28° Northeast 198 228 13,400 1,694 Climbing Cleveland Center
Fri 08:47:24 AM 41.7650 -82.0269 28° Northeast 193 222 15,200 1,597 Climbing Cleveland Center
Fri 08:48:26 AM 41.8050 -81.9861 37° Northeast 181 208 16,700 871 Climbing Cleveland Center
Fri 08:49:28 AM 41.8547 -81.9392 35° Northeast 223 257 17,000 195 Climbing Cleveland Center
Fri 08:50:29 AM 41.9150 -81.8822 35° Northeast 261 300 17,100  Climbing Cleveland Center
Fri 08:51:31 AM 41.9783 -81.8228 35° Northeast 273 314 17,000 -48 Descending Cleveland Center
Fri 08:52:33 AM 42.0431 -81.7625 35° Northeast 279 321 17,000  Level Cleveland Center
Fri 08:53:35 AM 42.1061 -81.7022 35° Northeast 278 320 17,000  Level Cleveland Center
Fri 08:54:37 AM 42.1783 -81.6319 36° Northeast 273 314 17,000  Level Cleveland Center
Fri 08:55:39 AM 42.2386 -81.5753 35° Northeast 264 304 17,000  Level Cleveland Center
Fri 08:56:41 AM 42.3019 -81.5142 36° Northeast 273 314 17,000  Level Cleveland Center
Fri 08:57:43 AM 42.3664 -81.4533 35° Northeast 280 322 17,000  Level Cleveland Center
Fri 08:58:45 AM 42.4300 -81.3917 36° Northeast 280 322 17,000  Level Cleveland Center
Fri 08:59:47 AM 42.4939 -81.3286 36° Northeast 280 322 17,000  Level Cleveland Center
Fri 09:00:49 AM 42.5567 -81.2692 35° Northeast 275 316 17,000  Level Cleveland Center
Fri 09:01:51 AM 42.6200 -81.2081 35° Northeast 276 318 17,000  Level Cleveland Center
Fri 09:02:53 AM 42.6836 -81.1169 46° Northeast 284 327 17,000  Level Cleveland Center
Fri 09:03:54 AM 42.7356 -81.0322 50° Northeast 289 333 17,000  Level Cleveland Center
Fri 09:04:56 AM 42.7886 -80.9525 48° Northeast 284 327 17,000  Level Cleveland Center
Fri 09:07:00 AM 42.9000 -80.7667 51° Northeast 280 322 17,000  Level Toronto Center
Fri 09:08:00 AM 42.9500 -80.6833 51° Northeast 280 322 17,000  Level Toronto Center
Fri 09:09:00 AM 43.0000 -80.6167 44° Northeast 280 322 17,000  Level Toronto Center
Fri 09:10:00 AM 43.0500 -80.5167 56° Northeast 290 334 17,000  Level Toronto Center
Fri 09:11:00 AM 43.1000 -80.4500 44° Northeast 290 334 17,000  Level Toronto Center
Fri 09:12:00 AM 43.1667 -80.3667 42° Northeast 290 334 17,000 -250 Level Toronto Center
Fri 09:13:00 AM 43.2333 -80.3500 10° North 290 334 16,500 -850 Descending Toronto Center
Fri 09:14:00 AM 43.3167 -80.3167 16° North 310 357 15,300 -1,350 Descending Toronto Center
Fri 09:15:00 AM 43.4000 -80.2500 30° Northeast 320 368 13,800 -2,100 Descending Toronto Center
Fri 09:16:00 AM 43.4667 -80.2000 29° Northeast 310 357 11,100 -2,400 Descending Toronto Center
Fri 09:17:00 AM 43.5167 -80.1167 50° Northeast 300 345 9,000 -1,050 Descending Toronto Center
Fri 09:18:00 AM 43.5500 -80.0167 65° Northeast 280 322 9,000  Level Toronto Center
Fri 09:19:00 AM 43.5667 -79.9167 77° East 270 311 9,000 -50 Level Toronto Center
Fri 09:20:00 AM 43.6000 -79.8333 61° Northeast 270 311 8,900 -500 Descending Toronto Center
Fri 09:21:00 AM 43.6667 -79.7667 36° Northeast 280 322 8,000 -850 Descending Toronto Center
Fri 09:22:00 AM 43.7333 -79.7000 36° Northeast 270 311 7,200 -900 Descending Toronto Center
Fri 09:23:00 AM 43.7833 -79.6333 44° Northeast 270 311 6,200 -1,050 Descending Toronto Center
Fri 09:24:00 AM 43.8333 -79.5667 44° Northeast 270 311 5,100 -1,100 Descending Toronto Center
Fri 09:25:00 AM 43.8167 -79.5000 109° East 240 276 4,000 -1,100 Descending Toronto Center
Fri 09:26:00 AM 43.7667 -79.5000 180° South 210 242 2,900 -950 Descending Toronto Center
Fri 09:27:00 AM 43.7333 -79.5333 216° Southwest 150 173 2,100 -750 Descending Toronto Center
Fri 09:28:00 AM 43.7167 -79.5667 235° Southwest 140 161 1,400 -650 Descending Toronto Center
Fri 09:29:00 AM 43.6833 -79.6167 227° Southwest 130 150 800 -450 Descending Toronto Center
Fri 09:30:00 AM 43.6667 -79.6333 216° Southwest 60 69 500 -150 Descending Toronto Center
Fri 09:31:00 AM 43.6667 -79.6333 216° Southwest 20 23 500  Level Toronto Center
Fri 09:32:00 AM 43.6833 -79.6333 360° North 20 23 500  Level Toronto Center
Fri 09:33:00 AM 43.6833 -79.6167 90° East 20 23 500  Level Toronto Center
Fri 09:34:00 AM 43.6833 -79.6167 90° East 10 12 500  Level Toronto Center

Login

Don't have an account? Register now (free) for customized features, flight alerts, and more!